createdAt,value
2023-01-01T00:01:06.028Z,8.72
2023-01-01T00:06:07.487Z,8.7
2023-01-01T00:11:09.468Z,8.67
2023-01-01T00:16:11.165Z,8.68
2023-01-01T00:21:12.962Z,8.74
2023-01-01T00:26:14.901Z,8.75
2023-01-01T00:31:17.111Z,8.75
2023-01-01T00:36:18.928Z,8.77
2023-01-01T00:41:20.879Z,8.79
2023-01-01T00:46:22.303Z,8.75
2023-01-01T00:51:23.493Z,8.7
2023-01-01T00:56:25.391Z,8.7
2023-01-01T01:01:27.462Z,8.71
2023-01-01T01:06:29.135Z,8.71
2023-01-01T01:11:31.199Z,8.72
2023-01-01T01:16:32.829Z,8.77
2023-01-01T01:21:36.129Z,8.76
2023-01-01T01:26:36.143Z,8.77
2023-01-01T01:31:38.133Z,8.78
2023-01-01T01:36:39.878Z,8.79
2023-01-01T01:41:41.292Z,8.78
2023-01-01T01:46:42.445Z,8.72
2023-01-01T01:51:43.981Z,8.72
2023-01-01T01:56:45.978Z,8.72
2023-01-01T02:01:47.728Z,8.67
2023-01-01T02:06:48.959Z,8.62
2023-01-01T02:11:50.240Z,8.6
2023-01-01T02:16:51.761Z,8.53
2023-01-01T02:21:52.820Z,8.43
2023-01-01T02:26:54.464Z,8.35
2023-01-01T02:31:56.442Z,8.31
2023-01-01T02:36:58.091Z,8.22
2023-01-01T02:41:59.806Z,8.1
2023-01-01T02:47:02.018Z,8.07
2023-01-01T02:52:03.637Z,8.02
2023-01-01T02:57:05.075Z,7.97
2023-01-01T03:02:06.407Z,7.9
2023-01-01T03:07:08.012Z,7.88
2023-01-01T03:12:09.794Z,7.88
2023-01-01T03:17:11.494Z,7.84
2023-01-01T03:22:12.905Z,7.78
2023-01-01T03:27:14.754Z,7.76
2023-01-01T03:32:16.608Z,7.69
2023-01-01T03:37:18.336Z,7.61
2023-01-01T03:42:20.410Z,7.53
2023-01-01T03:47:22.601Z,7.5
2023-01-01T03:52:24.054Z,7.45
2023-01-01T03:57:25.354Z,7.38
2023-01-01T04:02:27.111Z,7.27
2023-01-01T04:07:28.324Z,7.27
2023-01-01T04:12:29.601Z,7.25
2023-01-01T04:17:30.990Z,7.16
2023-01-01T04:22:32.505Z,7.07
2023-01-01T04:27:33.929Z,7.04
2023-01-01T04:32:35.849Z,7
2023-01-01T04:37:37.124Z,6.95
2023-01-01T04:42:38.533Z,6.84
2023-01-01T04:47:39.913Z,6.81
2023-01-01T04:52:41.484Z,6.81
2023-01-01T04:57:43.073Z,6.72
2023-01-01T05:02:44.631Z,6.62
2023-01-01T05:07:46.391Z,6.61
2023-01-01T05:12:47.960Z,6.57
2023-01-01T05:17:49.555Z,6.49
2023-01-01T05:22:51.012Z,6.4
2023-01-01T05:27:52.752Z,6.37
2023-01-01T05:27:58.966Z,6.36
2023-01-01T05:33:00.386Z,6.31
2023-01-01T05:38:02.093Z,6.24
2023-01-01T05:43:03.978Z,6.14
2023-01-01T05:48:05.688Z,6.13
2023-01-01T05:53:07.500Z,6.07
2023-01-01T05:58:09.295Z,5.98
2023-01-01T06:03:11.216Z,5.93
2023-01-01T06:08:12.547Z,5.9
2023-01-01T06:13:13.831Z,5.85
2023-01-01T06:18:15.737Z,5.78
2023-01-01T06:23:17.513Z,5.71
2023-01-01T06:28:19.589Z,5.67
2023-01-01T06:33:20.921Z,5.6
2023-01-01T06:38:22.685Z,5.53
2023-01-01T06:43:24.236Z,5.48
2023-01-01T06:48:25.497Z,5.41
2023-01-01T06:53:27.169Z,5.36
2023-01-01T06:58:28.636Z,5.32
2023-01-01T07:03:30.143Z,5.28
2023-01-01T07:08:31.627Z,5.29
2023-01-01T07:13:32.951Z,5.32
2023-01-01T07:18:34.999Z,5.37
2023-01-01T07:23:37.121Z,5.45
2023-01-01T07:28:38.958Z,5.55
2023-01-01T07:33:41.106Z,5.73
2023-01-01T07:38:42.435Z,5.99
2023-01-01T07:43:44.120Z,6.06
2023-01-01T07:48:46.262Z,6.32
2023-01-01T07:53:48.006Z,6.76
2023-01-01T07:58:49.449Z,7.13
2023-01-01T08:03:51.449Z,7.49
2023-01-01T08:08:52.963Z,7.73
2023-01-01T08:13:54.608Z,8.08
2023-01-01T08:18:56.430Z,8.85
2023-01-01T08:23:58.292Z,9.64
2023-01-01T08:29:00.015Z,10.32
2023-01-01T08:34:02.230Z,11.02
2023-01-01T08:39:03.554Z,12.26
2023-01-01T08:44:05.648Z,13.5
2023-01-01T08:49:07.651Z,14.54
2023-01-01T08:54:08.805Z,15.35
2023-01-01T08:59:10.478Z,16.18
2023-01-01T09:04:15.451Z,16.61
2023-01-01T09:09:12.868Z,17.08
2023-01-01T09:14:14.784Z,17.75
2023-01-01T09:19:16.241Z,18.18
2023-01-01T09:24:18.361Z,18.35
2023-01-01T09:29:19.705Z,18.94
2023-01-01T09:34:21.096Z,19.45
2023-01-01T09:39:22.897Z,19.95
2023-01-01T09:44:24.276Z,21.5
2023-01-01T09:49:26.579Z,23.03
2023-01-01T09:54:27.687Z,23.85
2023-01-01T09:59:29.375Z,24.96
2023-01-01T10:04:30.928Z,26.21
2023-01-01T10:09:32.140Z,26.89
2023-01-01T10:14:33.415Z,27.43
2023-01-01T10:19:35.063Z,28.46
2023-01-01T10:24:36.452Z,28.76
2023-01-01T10:29:38.160Z,29.27
2023-01-01T10:34:39.442Z,29.05
2023-01-01T10:39:41.346Z,28.94
2023-01-01T10:44:42.766Z,29.28
2023-01-01T10:49:44.297Z,29.58
2023-01-01T10:54:46.197Z,28.66
2023-01-01T10:59:53.717Z,28.4
2023-01-01T11:04:49.466Z,27.98
2023-01-01T11:10:02.366Z,26.95
2023-01-01T11:14:52.493Z,25.61
2023-01-01T11:19:58.224Z,25.25
2023-01-01T11:24:55.451Z,24.82
2023-01-01T11:29:57.314Z,24.06
2023-01-01T11:34:59.070Z,23.18
2023-01-01T11:40:00.659Z,22.96
2023-01-01T11:45:02.444Z,22.57
2023-01-01T11:50:04.395Z,21.91
2023-01-01T11:55:06.242Z,21.33
2023-01-01T12:00:07.704Z,20.82
2023-01-01T12:05:09.382Z,20.49
2023-01-01T12:10:10.953Z,20.19
2023-01-01T12:15:13.102Z,20.04
2023-01-01T12:20:14.264Z,19.87
2023-01-01T12:25:16.015Z,19.7
2023-01-01T12:30:17.562Z,19.58
2023-01-01T12:35:19.535Z,19.41
2023-01-01T12:40:24.701Z,19.29
2023-01-01T12:45:27.209Z,19.17
2023-01-01T12:50:25.400Z,19.06
2023-01-01T12:55:27.127Z,18.94
2023-01-01T13:00:28.319Z,18.85
2023-01-01T13:05:29.534Z,18.74
2023-01-01T13:10:31.229Z,18.62
2023-01-01T13:20:34.200Z,18.5
2023-01-01T13:30:37.386Z,18.35
2023-01-01T14:00:49.957Z,17.93
2023-01-01T14:10:50.070Z,17.82
2023-01-01T14:15:51.537Z,17.78
2023-01-01T14:20:53.429Z,17.69
2023-01-01T14:25:55.192Z,17.64
2023-01-01T14:30:56.815Z,17.6
2023-01-01T14:35:58.316Z,17.52
2023-01-01T14:41:00.017Z,17.42
2023-01-01T14:46:04.757Z,17.35
2023-01-01T14:51:02.572Z,17.25
2023-01-01T14:56:04.454Z,17.12
2023-01-01T15:01:06.145Z,17.03
2023-01-01T15:06:07.845Z,16.96
2023-01-01T15:11:09.112Z,16.83
2023-01-01T15:16:11.244Z,16.62
2023-01-01T15:21:13.347Z,16.53
2023-01-01T15:26:14.514Z,16.35
2023-01-01T15:31:16.711Z,16.07
2023-01-01T15:36:18.390Z,15.77
2023-01-01T15:41:20.464Z,15.54
2023-01-01T15:46:25.032Z,15.38
2023-01-01T15:51:24.212Z,15.17
2023-01-01T15:56:26.011Z,14.82
2023-01-01T16:01:28.122Z,14.58
2023-01-01T16:06:30.021Z,14.34
2023-01-01T16:11:31.800Z,14.1
2023-01-01T16:16:33.310Z,13.92
2023-01-01T16:21:35.012Z,13.86
2023-01-01T16:26:36.123Z,13.77
2023-01-01T16:31:38.050Z,13.63
2023-01-01T16:36:39.644Z,13.54
2023-01-01T16:41:40.835Z,13.45
2023-01-01T16:46:42.958Z,13.35
2023-01-01T16:51:45.053Z,13.15
2023-01-01T16:56:46.802Z,13.03
2023-01-01T17:01:48.904Z,12.97
2023-01-01T17:06:50.881Z,12.9
2023-01-01T17:11:53.030Z,12.73
2023-01-01T17:16:54.949Z,12.63
2023-01-01T17:21:56.467Z,12.51
2023-01-01T17:26:58.216Z,12.36
2023-01-01T17:32:00.247Z,12.25
2023-01-01T17:37:01.461Z,12.19
2023-01-01T17:42:03.635Z,12.14
2023-01-01T17:47:05.102Z,12.09
2023-01-01T17:52:06.945Z,11.98
2023-01-01T17:57:08.863Z,11.9
2023-01-01T18:02:10.729Z,11.75
2023-01-01T18:07:11.925Z,11.61
2023-01-01T18:12:13.583Z,11.53
2023-01-01T18:17:15.465Z,11.46
2023-01-01T18:22:16.964Z,11.43
2023-01-01T18:27:18.514Z,11.33
2023-01-01T18:32:20.451Z,11.29
2023-01-01T18:37:22.025Z,11.25
2023-01-01T18:42:23.425Z,11.17
2023-01-01T18:47:24.802Z,10.97
2023-01-01T18:52:26.834Z,10.88
2023-01-01T18:57:29.812Z,10.81
2023-01-01T19:02:30.811Z,10.71
2023-01-01T19:07:32.446Z,10.58
2023-01-01T19:12:34.013Z,10.53
2023-01-01T19:17:36.045Z,10.44
2023-01-01T19:22:37.779Z,10.36
2023-01-01T19:27:39.255Z,10.24
2023-01-01T19:32:41.409Z,10.18
2023-01-01T19:37:43.299Z,10.1
2023-01-01T19:42:45.571Z,9.99
2023-01-01T19:47:47.152Z,9.89
2023-01-01T19:52:48.995Z,9.83
2023-01-01T19:57:50.878Z,9.72
2023-01-01T20:02:52.973Z,9.6
2023-01-01T20:07:54.924Z,9.54
2023-01-01T20:12:56.975Z,9.49
2023-01-01T20:17:58.922Z,9.43
2023-01-01T20:23:01.019Z,9.32
2023-01-01T20:28:03.019Z,9.27
2023-01-01T20:33:04.194Z,9.24
2023-01-01T20:38:06.276Z,9.21
2023-01-01T20:43:08.294Z,9.17
2023-01-01T20:48:13.463Z,9.13
2023-01-01T20:53:11.389Z,9.08
2023-01-01T20:58:13.020Z,8.99
2023-01-01T21:03:15.204Z,8.84
2023-01-01T21:08:16.822Z,8.72
2023-01-01T21:13:18.954Z,8.53
2023-01-01T21:18:20.151Z,8.34
2023-01-01T21:23:21.985Z,8.21
2023-01-01T21:28:23.424Z,8.1
2023-01-01T21:33:25.401Z,8.01
2023-01-01T21:38:26.947Z,7.83
2023-01-01T21:43:28.386Z,7.73
2023-01-01T21:48:29.805Z,7.63
2023-01-01T21:53:31.946Z,7.6
2023-01-01T21:58:33.719Z,7.53
2023-01-01T22:03:35.262Z,7.46
2023-01-01T22:08:36.811Z,7.36
2023-01-01T22:13:38.452Z,7.25
2023-01-01T22:18:46.740Z,7.17
2023-01-01T22:23:48.499Z,7.13
2023-01-01T22:28:50.249Z,7.1
2023-01-01T22:33:51.516Z,7.06
2023-01-01T22:38:53.151Z,6.98
2023-01-01T22:43:55.046Z,6.93
2023-01-01T22:48:58.121Z,6.91
2023-01-01T22:53:58.668Z,6.86
2023-01-01T22:59:00.340Z,6.79
2023-01-01T23:04:01.928Z,6.75
2023-01-01T23:09:03.176Z,6.73
2023-01-01T23:14:05.094Z,6.64
2023-01-01T23:19:06.982Z,6.54
2023-01-01T23:24:08.871Z,6.49
2023-01-01T23:29:11.031Z,6.45
2023-01-01T23:34:13.157Z,6.39
2023-01-01T23:39:15.174Z,6.28
2023-01-01T23:44:17.409Z,6.19
2023-01-01T23:49:18.910Z,6.12
2023-01-01T23:54:20.417Z,6.02
2023-01-01T23:59:22.522Z,5.91
